Bad Tolz, Germany

1:37 PM CET on February 09, 2016 (GMT +0100)
Munich Airport | | Change Station
CLOSE
Current Station
Airport
Location: Munich,
Elevation: 1486 ft
Nearby Weather Stations

Elev 1486 ft 48.35 °N, 11.81 °E | Updated 17 minutes ago

Clear
Clear
52 °F
Feels Like 52 °F
N
14
Wind Variable Wind from ESE

Today
High -- | Low -- °F
--% Chance of Precip.
Yesterday
High -- | Low -- °F
Precip. -- in
Pressure 29.44 in
Visibility -9999.0 miles
Clouds
Dew Point 41 °F
Humidity 67%
Rainfall 0.00 in
Snow Depth Not available.
7:30 AM 5:25 PM
New Moon, 1% visible
METAR EDDM 091220Z 11012KT CAVOK 11/05 Q0997 NOSIG
Pressure 29.44 in
Visibility -9999.0 miles
Clouds
Dew Point 41 °F
Humidity 67%
Rainfall 0.00 in
Snow Depth Not available.
7:30 AM 5:25 PM
New Moon, 1% visible
METAR EDDM 091220Z 11012KT CAVOK 11/05 Q0997 NOSIG

10-Day Weather Forecast

Almanac

Astronomy

Feb. 09, 2016 Rise Set
Actual Time
Civil Twilight
Nautical Twilight
Astronomical Twilight
Moon
Length of Visible Light
Length of Day
Tomorrow will be .
, % of the Moon is Illuminated

Today's Extremes

Country Highs Country Lows

Community

WunderPhotos

Upload Photos

1,891,589 photos uploaded!

WunderBlog® & News

Nearby

Air Quality

  Air Quality AQ Index Pollutant
Not available.

Snow Depth

Station Depth Elevation

Earthquake Activity

City Distance Mag. Time & Date
Minimum magnitude displayed is 2.5.

Coastal Water Temperatures

Place Temperature

Stations

Nearby Weather Stations

Station Location Temp. Windchill Dew Point Humidity Wind Precip. Elev Updated Type